Time;durP1;ratioP1;P1;durP2;ratioP2;P2;SDS_P1;SDS_P2;PMS_P1;PMS_P2;Temp;Humidity;BMP_temperature;BMP_pressure;BME280_temperature;BME280_humidity;BME280_pressure;Samples;Min_cycle;Max_cycle;Signal;HPM_P1;HPM_P2
2022/06/03 00:01:30;;;;;;;1.50;1.00;;;14.40;87.10;;;;;;5009062;28;20811;-82
2022/06/03 00:04:14;;;;;;;1.50;1.00;;;14.30;87.10;;;;;;5017879;28;20505;-79
2022/06/03 00:06:57;;;;;;;1.50;1.00;;;14.20;88.30;;;;;;5024197;28;20485;-79
2022/06/03 00:09:49;;;;;;;1.50;1.00;;;14.20;88.10;;;;;;5040219;28;20463;-79
2022/06/03 00:12:34;;;;;;;1.47;1.00;;;14.20;88.30;;;;;;5032430;28;20974;-79
2022/06/03 00:15:12;;;;;;;1.47;1.00;;;14.10;88.70;;;;;;5035428;28;20509;-78
2022/06/03 00:18:10;;;;;;;1.50;1.03;;;14.00;89.10;;;;;;5022858;28;20487;-77
2022/06/03 00:21:02;;;;;;;1.43;1.00;;;14.00;88.90;;;;;;5034439;28;20542;-79
2022/06/03 00:23:55;;;;;;;1.40;1.00;;;14.00;88.70;;;;;;5016347;28;20490;-78
2022/06/03 00:26:53;;;;;;;1.47;1.00;;;13.90;89.00;;;;;;5025277;28;20482;-80
2022/06/03 00:29:34;;;;;;;1.50;1.00;;;13.90;89.10;;;;;;5027663;28;20459;-80
2022/06/03 00:32:31;;;;;;;1.47;1.00;;;13.80;90.20;;;;;;5025988;28;20487;-79
2022/06/03 00:35:22;;;;;;;1.43;1.00;;;13.80;89.20;;;;;;4986787;28;20501;-79
2022/06/03 00:37:55;;;;;;;1.50;1.00;;;13.70;89.40;;;;;;5033843;28;20569;-79
2022/06/03 00:40:37;;;;;;;1.50;1.00;;;13.70;89.50;;;;;;5033023;28;20539;-79
2022/06/03 00:43:22;;;;;;;1.47;1.00;;;13.70;89.90;;;;;;5022029;28;20503;-80
2022/06/03 00:46:04;;;;;;;1.47;1.00;;;13.60;89.50;;;;;;5023118;28;20467;-81
2022/06/03 00:48:43;;;;;;;1.47;1.00;;;13.60;89.80;;;;;;5029207;28;20599;-78
2022/06/03 00:51:35;;;;;;;1.50;1.10;;;13.50;90.20;;;;;;5026828;28;20898;-80
2022/06/03 00:54:36;;;;;;;1.43;1.00;;;13.50;90.40;;;;;;5046243;28;20479;-82
2022/06/03 00:57:42;;;;;;;1.47;1.00;;;13.40;90.80;;;;;;5035477;28;20482;-79
2022/06/03 01:00:17;;;;;;;1.50;1.00;;;13.40;90.90;;;;;;5035840;28;20489;-79
2022/06/03 01:03:04;;;;;;;1.50;1.00;;;13.30;90.90;;;;;;5029332;28;20471;-80
2022/06/03 01:05:40;;;;;;;1.50;1.10;;;13.30;92.10;;;;;;5032134;28;20463;-80
2022/06/03 01:08:18;;;;;;;1.50;1.10;;;13.30;91.80;;;;;;5042109;28;20883;-79
2022/06/03 01:11:02;;;;;;;1.47;1.00;;;13.20;92.00;;;;;;5035537;28;20463;-81
2022/06/03 01:13:41;;;;;;;1.43;1.00;;;13.20;92.40;;;;;;5024448;28;20518;-79
2022/06/03 01:16:20;;;;;;;1.47;1.00;;;13.10;92.80;;;;;;5020914;28;20529;-80
2022/06/03 01:18:52;;;;;;;1.43;1.00;;;13.10;92.90;;;;;;5046225;28;21113;-81
2022/06/03 01:21:30;;;;;;;1.47;1.10;;;13.10;93.20;;;;;;5020369;28;20479;-79
2022/06/03 01:24:27;;;;;;;1.47;1.00;;;13.10;92.30;;;;;;5021100;28;20526;-79
2022/06/03 01:27:38;;;;;;;1.47;1.00;;;13.00;92.20;;;;;;5023419;28;20867;-78
2022/06/03 01:30:21;;;;;;;1.50;1.00;;;13.00;92.50;;;;;;4994401;28;20776;-82
2022/06/03 01:33:24;;;;;;;1.47;1.00;;;13.00;93.40;;;;;;5009705;28;20475;-80
2022/06/03 01:36:35;;;;;;;1.43;1.00;;;13.00;93.00;;;;;;5024242;28;20486;-79
2022/06/03 01:39:24;;;;;;;1.50;1.10;;;12.90;93.20;;;;;;5025181;28;20463;-79
2022/06/03 01:42:28;;;;;;;1.43;1.10;;;12.90;92.50;;;;;;5029431;28;20466;-80
2022/06/03 01:45:11;;;;;;;1.50;1.00;;;12.90;93.40;;;;;;5033537;28;20788;-79
2022/06/03 01:48:12;;;;;;;1.47;1.00;;;12.90;93.10;;;;;;5040240;28;20474;-81
2022/06/03 01:51:00;;;;;;;1.47;1.00;;;12.80;92.50;;;;;;5034837;28;21192;-81
2022/06/03 01:53:48;;;;;;;1.47;1.00;;;12.80;93.00;;;;;;5038280;28;20513;-82
2022/06/03 01:56:43;;;;;;;1.43;1.00;;;12.70;92.70;;;;;;5038960;28;20571;-79
2022/06/03 01:59:35;;;;;;;1.50;1.10;;;12.70;93.20;;;;;;5027888;28;20502;-79
2022/06/03 02:02:37;;;;;;;1.43;1.00;;;12.70;93.20;;;;;;5024569;28;20466;-78
2022/06/03 02:05:31;;;;;;;1.47;1.07;;;12.70;92.80;;;;;;5030430;28;20474;-77
2022/06/03 02:08:16;;;;;;;1.43;1.00;;;12.70;93.30;;;;;;5030777;28;20483;-80
2022/06/03 02:11:16;;;;;;;1.47;1.00;;;12.60;94.20;;;;;;5035385;28;20475;-80
2022/06/03 02:14:29;;;;;;;1.47;1.00;;;12.60;94.40;;;;;;5031592;28;20505;-80
2022/06/03 02:17:24;;;;;;;1.47;1.00;;;12.60;94.90;;;;;;5031548;28;20543;-78
2022/06/03 02:20:46;;;;;;;1.50;1.00;;;12.60;94.10;;;;;;5037743;28;20467;-80
2022/06/03 02:23:55;;;;;;;1.50;1.00;;;12.50;94.40;;;;;;5028217;28;20590;-79
2022/06/03 02:26:57;;;;;;;1.43;1.00;;;12.50;94.90;;;;;;5006455;28;20568;-81
2022/06/03 02:32:56;;;;;;;1.50;1.10;;;12.40;95.30;;;;;;5025422;28;20969;-81
2022/06/03 02:35:44;;;;;;;1.47;1.00;;;12.40;95.50;;;;;;5032313;28;20549;-78
2022/06/03 02:38:34;;;;;;;1.47;1.00;;;12.40;95.50;;;;;;5027486;28;20470;-80
2022/06/03 02:41:29;;;;;;;1.50;1.10;;;12.40;95.70;;;;;;5038462;28;20474;-79
2022/06/03 02:44:27;;;;;;;1.43;1.00;;;12.40;95.80;;;;;;5028521;28;20958;-83
2022/06/03 02:47:27;;;;;;;1.50;1.10;;;12.40;95.50;;;;;;5030395;28;20455;-80
2022/06/03 02:50:15;;;;;;;1.47;1.00;;;12.40;95.30;;;;;;5036491;28;20469;-80
2022/06/03 02:53:27;;;;;;;1.50;1.00;;;12.30;96.40;;;;;;5032436;28;20463;-79
2022/06/03 02:56:08;;;;;;;1.47;1.10;;;12.30;96.60;;;;;;5037642;28;20864;-84
2022/06/03 02:58:59;;;;;;;1.50;1.10;;;12.30;96.10;;;;;;5034964;28;20473;-81
2022/06/03 03:01:42;;;;;;;1.50;1.20;;;12.30;96.10;;;;;;5034892;28;20461;-80
2022/06/03 03:04:29;;;;;;;1.50;1.10;;;12.20;96.10;;;;;;5029083;28;20740;-77
2022/06/03 03:07:48;;;;;;;1.50;1.10;;;12.20;96.60;;;;;;5033636;28;20459;-84
2022/06/03 03:10:24;;;;;;;1.50;1.10;;;12.20;97.30;;;;;;5039255;28;20475;-79
2022/06/03 03:13:10;;;;;;;1.50;1.00;;;12.20;96.10;;;;;;5033581;28;20546;-82
2022/06/03 03:16:08;;;;;;;1.47;1.10;;;12.20;96.40;;;;;;5026524;28;20788;-81
2022/06/03 03:19:07;;;;;;;1.50;1.00;;;12.20;96.50;;;;;;5035205;28;20477;-80
2022/06/03 03:22:03;;;;;;;1.50;1.10;;;12.20;96.10;;;;;;5034266;28;20451;-81
2022/06/03 03:24:57;;;;;;;1.47;1.00;;;12.20;96.50;;;;;;5035006;28;20627;-78
2022/06/03 03:27:46;;;;;;;1.47;1.00;;;12.20;95.70;;;;;;5052305;22;20869;-78
2022/06/03 03:30:21;;;;;;;1.43;1.00;;;12.20;96.50;;;;;;5023566;28;20838;-77
2022/06/03 03:33:21;;;;;;;1.43;1.00;;;12.20;96.40;;;;;;4997317;28;20845;-77
2022/06/03 03:36:24;;;;;;;1.50;1.00;;;12.20;96.00;;;;;;4967862;28;20569;-77
2022/06/03 03:39:29;;;;;;;1.50;1.10;;;12.20;96.80;;;;;;4985211;28;21034;-76
2022/06/03 03:42:33;;;;;;;1.40;1.10;;;12.20;96.40;;;;;;4985518;28;20460;-77
2022/06/03 03:45:31;;;;;;;1.50;1.10;;;12.20;95.80;;;;;;4988453;28;20461;-77
2022/06/03 03:48:26;;;;;;;1.47;1.00;;;12.20;96.60;;;;;;4987311;28;20488;-77
2022/06/03 03:51:13;;;;;;;1.50;1.10;;;12.20;97.30;;;;;;4982921;28;20461;-79
2022/06/03 03:54:19;;;;;;;1.43;1.00;;;12.20;96.30;;;;;;4992007;28;20469;-77
2022/06/03 03:57:19;;;;;;;1.50;1.10;;;12.20;96.40;;;;;;4980741;28;20482;-77
2022/06/03 04:00:19;;;;;;;1.47;1.10;;;12.20;96.90;;;;;;4986328;28;20867;-77
2022/06/03 04:03:24;;;;;;;1.50;1.10;;;12.20;96.30;;;;;;4990987;28;20564;-78
2022/06/03 04:06:22;;;;;;;1.50;1.10;;;12.20;96.90;;;;;;4988492;28;20495;-78
2022/06/03 04:09:22;;;;;;;1.43;1.00;;;12.20;96.70;;;;;;4983545;28;20491;-78
2022/06/03 04:12:12;;;;;;;1.43;1.00;;;12.30;96.40;;;;;;4981211;28;20472;-78
2022/06/03 04:15:21;;;;;;;1.50;1.10;;;12.30;97.10;;;;;;4974091;28;20469;-78
2022/06/03 04:18:39;;;;;;;1.50;1.10;;;12.40;97.20;;;;;;4991670;28;20481;-78
2022/06/03 04:21:39;;;;;;;1.47;1.00;;;12.40;97.20;;;;;;4929740;28;20472;-79
2022/06/03 04:24:54;;;;;;;1.50;1.10;;;12.50;97.50;;;;;;4928156;29;20543;-78
2022/06/03 04:28:03;;;;;;;1.47;1.00;;;12.60;97.20;;;;;;4984809;28;20500;-78
2022/06/03 04:31:03;;;;;;;1.47;1.10;;;12.60;97.10;;;;;;4984582;28;20469;-79
2022/06/03 04:33:56;;;;;;;1.50;1.10;;;12.60;97.50;;;;;;4989687;28;21084;-79
2022/06/03 04:37:15;;;;;;;1.50;1.00;;;12.70;97.50;;;;;;4991486;28;20555;-79
2022/06/03 04:40:20;;;;;;;1.47;1.00;;;12.80;97.60;;;;;;4986825;28;20472;-78
2022/06/03 04:43:44;;;;;;;1.50;1.00;;;12.90;97.50;;;;;;4991223;28;20577;-78
2022/06/03 04:46:53;;;;;;;1.50;1.10;;;13.10;98.10;;;;;;4991896;28;20524;-78
2022/06/03 04:49:58;;;;;;;1.47;1.00;;;13.40;98.00;;;;;;4991142;28;20571;-79
2022/06/03 04:53:03;;;;;;;1.50;1.00;;;13.70;97.90;;;;;;4963047;28;20601;-78
2022/06/03 04:56:09;;;;;;;2.17;1.20;;;14.10;96.10;;;;;;4986120;28;20536;-79
2022/06/03 04:59:09;;;;;;;1.47;1.00;;;14.40;95.50;;;;;;4972845;28;20481;-79
2022/06/03 05:02:09;;;;;;;1.50;1.00;;;14.80;94.60;;;;;;4986616;28;20528;-79
2022/06/03 05:05:15;;;;;;;1.50;1.00;;;15.10;93.70;;;;;;4987778;28;20476;-80
2022/06/03 05:08:24;;;;;;;1.47;0.90;;;15.60;93.10;;;;;;4992350;28;20504;-81
2022/06/03 05:11:20;;;;;;;1.50;1.00;;;16.00;91.30;;;;;;4992544;28;20472;-81
2022/06/03 05:14:41;;;;;;;1.47;0.97;;;16.50;90.10;;;;;;4991393;28;20469;-79
2022/06/03 05:17:32;;;;;;;1.50;0.97;;;16.80;88.40;;;;;;4947532;28;20493;-80
2022/06/03 05:20:27;;;;;;;1.50;1.00;;;17.20;87.60;;;;;;4953129;29;20561;-80
2022/06/03 05:23:19;;;;;;;1.47;1.00;;;17.50;86.70;;;;;;4981106;28;20456;-79
2022/06/03 05:26:13;;;;;;;1.47;0.93;;;17.80;85.20;;;;;;4997192;28;20588;-80
2022/06/03 05:29:04;;;;;;;1.47;1.00;;;18.00;84.10;;;;;;4993563;28;20560;-80
2022/06/03 05:32:09;;;;;;;1.50;1.00;;;18.10;83.40;;;;;;4989696;28;20730;-80
2022/06/03 05:35:04;;;;;;;1.50;0.90;;;18.20;82.30;;;;;;4990315;28;20460;-80
2022/06/03 05:37:54;;;;;;;1.50;0.90;;;18.30;83.30;;;;;;4989969;28;20492;-78
2022/06/03 05:42:23;;;;;;;1.50;0.90;;;18.50;82.50;;;;;;4992939;28;20476;-81
2022/06/03 05:44:04;;;;;;;1.43;0.90;;;18.70;82.80;;;;;;4907154;29;20487;-81
2022/06/03 05:46:42;;;;;;;1.47;0.90;;;19.00;81.50;;;;;;4936185;29;20491;-81
2022/06/03 05:49:25;;;;;;;1.43;0.90;;;19.20;79.90;;;;;;4977721;28;20494;-81
2022/06/03 05:52:24;;;;;;;1.50;0.93;;;19.20;79.40;;;;;;4996317;28;20460;-80
2022/06/03 05:55:03;;;;;;;1.50;0.93;;;19.10;79.50;;;;;;4997311;28;20461;-81
2022/06/03 05:57:39;;;;;;;1.50;0.90;;;19.10;78.10;;;;;;5002348;28;20495;-82
2022/06/03 06:00:34;;;;;;;1.47;0.90;;;19.10;77.90;;;;;;4999696;28;20526;-81
2022/06/03 06:03:17;;;;;;;1.47;0.90;;;19.30;77.40;;;;;;4991114;28;20599;-81
2022/06/03 06:05:52;;;;;;;1.70;1.30;;;19.50;77.80;;;;;;4994550;28;20488;-82
2022/06/03 06:08:33;;;;;;;1.43;0.90;;;19.70;75.60;;;;;;4997231;28;20483;-82
2022/06/03 06:11:07;;;;;;;1.43;0.90;;;19.80;75.80;;;;;;4988907;28;20889;-82
2022/06/03 06:13:55;;;;;;;1.50;1.03;;;19.90;75.40;;;;;;4994117;28;20456;-83
2022/06/03 06:16:23;;;;;;;3.03;2.80;;;19.80;75.10;;;;;;4995824;28;20587;-82
2022/06/03 06:18:57;;;;;;;1.47;0.90;;;20.00;75.00;;;;;;4993810;28;20475;-82
2022/06/03 06:21:50;;;;;;;1.50;0.90;;;20.10;75.40;;;;;;4994819;28;20971;-81
2022/06/03 06:24:22;;;;;;;1.40;0.90;;;20.40;74.80;;;;;;4998646;28;20916;-82
2022/06/03 06:27:13;;;;;;;1.50;0.90;;;20.50;74.40;;;;;;4994668;28;20476;-82
2022/06/03 06:30:09;;;;;;;1.50;0.90;;;20.60;73.20;;;;;;4998022;28;20537;-81
2022/06/03 06:33:09;;;;;;;1.47;0.90;;;20.60;73.90;;;;;;4995323;28;20469;-82
2022/06/03 06:36:09;;;;;;;1.47;0.90;;;21.00;72.80;;;;;;4992347;28;20488;-83
2022/06/03 06:38:47;;;;;;;1.50;0.90;;;21.10;72.80;;;;;;4986475;28;20484;-82
2022/06/03 06:41:36;;;;;;;1.43;0.87;;;21.50;72.80;;;;;;4988650;28;20468;-82
2022/06/03 06:44:09;;;;;;;1.50;0.90;;;21.50;71.70;;;;;;4989834;28;20480;-81
2022/06/03 06:46:47;;;;;;;1.47;0.87;;;21.40;71.40;;;;;;4994496;28;20489;-78
2022/06/03 06:49:24;;;;;;;1.43;0.90;;;21.50;72.50;;;;;;4986610;28;20464;-79
2022/06/03 06:52:07;;;;;;;1.50;0.90;;;21.70;71.60;;;;;;4989364;28;20457;-80
2022/06/03 06:54:45;;;;;;;1.47;0.90;;;21.80;71.70;;;;;;4987357;28;20575;-77
2022/06/03 06:57:17;;;;;;;1.50;0.90;;;22.10;70.80;;;;;;4967949;28;20485;-78
2022/06/03 06:59:49;;;;;;;1.50;0.90;;;22.40;70.70;;;;;;4982653;28;20531;-80
2022/06/03 07:02:21;;;;;;;1.47;0.90;;;22.70;69.60;;;;;;4992196;28;20573;-81
2022/06/03 07:04:54;;;;;;;1.47;0.90;;;22.50;68.80;;;;;;4988282;28;20465;-80
2022/06/03 07:07:27;;;;;;;1.47;0.90;;;22.40;70.20;;;;;;4989137;28;20492;-80
2022/06/03 07:09:59;;;;;;;1.50;0.83;;;22.50;69.00;;;;;;4988066;28;20499;-80
2022/06/03 07:12:31;;;;;;;1.50;0.90;;;22.70;69.50;;;;;;4986117;28;20842;-81
2022/06/03 07:15:05;;;;;;;1.47;0.90;;;22.90;69.50;;;;;;4990224;28;20936;-80
2022/06/03 07:20:42;;;;;;;1.47;0.90;;;23.30;68.50;;;;;;4985252;28;20541;-80
2022/06/03 07:23:15;;;;;;;1.50;0.90;;;23.50;68.00;;;;;;4991818;28;20492;-81
2022/06/03 07:25:56;;;;;;;1.47;0.80;;;23.70;67.80;;;;;;5006491;28;20482;-79
2022/06/03 07:28:32;;;;;;;1.47;0.80;;;23.80;67.50;;;;;;5006855;28;20520;-81
2022/06/03 07:31:09;;;;;;;1.40;0.80;;;24.00;67.60;;;;;;4992803;28;20464;-79
2022/06/03 07:33:42;;;;;;;1.47;0.90;;;24.20;65.80;;;;;;4988181;28;20607;-79
2022/06/03 07:36:14;;;;;;;1.43;0.90;;;24.30;66.40;;;;;;4997729;28;20479;-80
2022/06/03 07:38:49;;;;;;;1.43;0.80;;;24.40;66.70;;;;;;5013926;28;20478;-79
2022/06/03 07:41:20;;;;;;;1.47;0.90;;;24.60;66.60;;;;;;5008387;28;20481;-79
2022/06/03 07:43:52;;;;;;;1.50;0.90;;;24.70;65.90;;;;;;5009756;28;20936;-79
2022/06/03 07:46:23;;;;;;;1.50;0.80;;;24.70;65.40;;;;;;5011283;28;20483;-80
2022/06/03 07:48:50;;;;;;;1.47;0.80;;;24.70;66.00;;;;;;5011439;28;20961;-80
2022/06/03 07:51:22;;;;;;;1.47;0.90;;;25.00;66.30;;;;;;4999363;28;20818;-81
2022/06/03 07:53:55;;;;;;;1.43;0.80;;;24.90;65.40;;;;;;5029868;28;20486;-79
2022/06/03 07:56:24;;;;;;;1.43;0.90;;;25.10;65.60;;;;;;5010839;28;20488;-79
2022/06/03 07:58:56;;;;;;;1.40;0.90;;;25.30;66.70;;;;;;5008005;28;20456;-80
2022/06/03 08:01:27;;;;;;;1.50;0.80;;;25.70;66.00;;;;;;5006395;28;20536;-79
2022/06/03 08:03:54;;;;;;;1.50;1.10;;;25.90;64.50;;;;;;5002317;28;20459;-78
2022/06/03 08:06:30;;;;;;;1.43;0.83;;;26.10;63.90;;;;;;5002175;28;20870;-78
2022/06/03 08:11:47;;;;;;;1.43;0.80;;;26.30;62.80;;;;;;5008993;28;20451;-78
2022/06/03 08:14:14;;;;;;;1.50;0.80;;;26.40;63.00;;;;;;5005994;28;20464;-81
2022/06/03 08:16:44;;;;;;;1.40;0.90;;;26.50;62.00;;;;;;5006834;28;20487;-77
2022/06/03 08:19:15;;;;;;;1.43;0.80;;;26.50;63.80;;;;;;5004912;28;20467;-78
2022/06/03 08:21:46;;;;;;;1.47;0.80;;;26.70;61.60;;;;;;5008335;28;20909;-77
2022/06/03 08:24:17;;;;;;;1.47;0.90;;;26.90;61.90;;;;;;5004719;28;21294;-78
2022/06/03 08:26:48;;;;;;;1.43;0.90;;;27.00;62.40;;;;;;5006559;28;20495;-79
2022/06/03 08:29:28;;;;;;;1.50;0.90;;;27.10;61.50;;;;;;5005442;28;20467;-79
2022/06/03 08:31:59;;;;;;;1.47;0.80;;;27.10;62.40;;;;;;5000214;28;20467;-77
2022/06/03 08:34:29;;;;;;;1.50;0.90;;;27.10;62.90;;;;;;5004456;28;20455;-77
2022/06/03 08:36:56;;;;;;;1.47;0.80;;;27.10;62.90;;;;;;5009608;28;21052;-78
2022/06/03 08:39:25;;;;;;;1.47;0.80;;;27.10;62.70;;;;;;5009202;28;20463;-79
2022/06/03 08:42:17;;;;;;;1.47;0.80;;;27.10;61.90;;;;;;5010239;28;20963;-77
2022/06/03 08:44:58;;;;;;;1.43;0.83;;;27.20;62.60;;;;;;5006749;28;20791;-78
2022/06/03 08:47:35;;;;;;;1.47;0.90;;;27.30;61.50;;;;;;5000241;28;20494;-79
2022/06/03 08:50:06;;;;;;;1.40;0.80;;;27.40;61.50;;;;;;5006447;28;20463;-77
2022/06/03 08:52:46;;;;;;;1.50;0.80;;;27.50;62.40;;;;;;5011007;28;20463;-78
2022/06/03 08:55:39;;;;;;;1.47;0.80;;;27.60;60.90;;;;;;5003228;28;20470;-78
2022/06/03 08:58:16;;;;;;;1.47;0.83;;;27.70;61.30;;;;;;5004283;28;20475;-79
2022/06/03 09:00:58;;;;;;;1.43;0.80;;;27.70;60.50;;;;;;5003108;28;20463;-79
2022/06/03 09:03:30;;;;;;;1.50;0.80;;;27.80;62.40;;;;;;5001039;28;20464;-78
2022/06/03 09:06:04;;;;;;;1.40;0.80;;;27.90;60.70;;;;;;5005118;28;20510;-78
2022/06/03 09:08:38;;;;;;;1.47;0.80;;;28.10;61.40;;;;;;5003590;28;20492;-77
2022/06/03 09:11:14;;;;;;;1.50;0.80;;;28.10;59.90;;;;;;5003279;28;20532;-78
2022/06/03 09:13:48;;;;;;;1.40;0.80;;;28.10;60.20;;;;;;5001430;28;20802;-77
2022/06/03 09:16:18;;;;;;;1.47;0.80;;;28.20;60.10;;;;;;5003720;28;20987;-78
2022/06/03 09:18:51;;;;;;;1.47;0.87;;;28.00;60.50;;;;;;5004960;28;20800;-78
2022/06/03 09:21:23;;;;;;;1.50;0.87;;;28.10;61.90;;;;;;5007532;28;20565;-80
2022/06/03 09:23:54;;;;;;;1.43;0.80;;;28.30;60.20;;;;;;5007255;28;20554;-79
2022/06/03 09:26:25;;;;;;;1.40;0.80;;;28.30;62.00;;;;;;5004933;28;20596;-80
2022/06/03 09:28:53;;;;;;;1.50;1.00;;;28.30;61.60;;;;;;5006771;28;21001;-80
2022/06/03 09:31:22;;;;;;;1.60;1.00;;;28.30;61.30;;;;;;5008174;28;20474;-80
2022/06/03 09:33:51;;;;;;;1.50;1.00;;;28.20;61.30;;;;;;5007174;28;20927;-80
2022/06/03 09:36:19;;;;;;;1.43;0.80;;;28.00;60.70;;;;;;5005396;28;20491;-80
2022/06/03 09:38:51;;;;;;;1.47;0.80;;;27.90;62.00;;;;;;5006322;28;21083;-78
2022/06/03 09:41:22;;;;;;;1.50;0.80;;;27.80;61.20;;;;;;4993644;28;20523;-78
2022/06/03 09:43:53;;;;;;;1.50;0.80;;;27.40;61.40;;;;;;4998634;28;20486;-78
2022/06/03 09:46:23;;;;;;;1.47;0.90;;;27.30;62.60;;;;;;5004679;28;20498;-79
2022/06/03 09:48:51;;;;;;;1.47;0.80;;;27.30;63.80;;;;;;5004323;28;20498;-78
2022/06/03 09:51:25;;;;;;;1.43;0.80;;;27.60;62.30;;;;;;5003506;28;20462;-79
2022/06/03 09:53:54;;;;;;;1.43;0.80;;;28.10;64.60;;;;;;5004279;28;20490;-78
2022/06/03 09:56:29;;;;;;;1.43;0.80;;;28.60;61.90;;;;;;5007372;28;21331;-79
2022/06/03 09:59:00;;;;;;;1.47;0.80;;;29.00;61.50;;;;;;5011100;28;20710;-80
2022/06/03 10:01:27;;;;;;;1.50;0.80;;;29.50;59.80;;;;;;5018276;28;20467;-80
2022/06/03 10:03:59;;;;;;;1.40;0.80;;;29.50;60.70;;;;;;5016901;28;20516;-79
2022/06/03 10:14:37;;;;;;;1.40;0.80;;;29.70;60.70;;;;;;4994416;28;20463;-80
2022/06/03 10:17:05;;;;;;;1.40;0.80;;;29.90;59.40;;;;;;5018798;28;20483;-81
2022/06/03 10:19:34;;;;;;;1.43;0.80;;;30.00;60.60;;;;;;5013450;28;20472;-80
2022/06/03 10:22:08;;;;;;;1.47;0.80;;;29.70;59.70;;;;;;5017040;28;20471;-80
2022/06/03 10:24:35;;;;;;;1.40;0.80;;;29.60;59.10;;;;;;5013942;28;20476;-81
2022/06/03 10:27:05;;;;;;;1.43;0.80;;;29.60;61.20;;;;;;5009452;28;20495;-79
2022/06/03 10:29:31;;;;;;;1.50;0.90;;;29.90;61.40;;;;;;5008018;28;20474;-79
2022/06/03 10:32:01;;;;;;;1.50;0.90;;;30.10;59.60;;;;;;5008832;28;20495;-80
2022/06/03 10:34:35;;;;;;;1.47;0.80;;;30.30;62.00;;;;;;5008959;28;20555;-81
2022/06/03 10:37:03;;;;;;;1.43;0.80;;;30.60;58.40;;;;;;5008773;28;20475;-79
2022/06/03 10:39:33;;;;;;;1.40;0.80;;;30.90;58.90;;;;;;5009242;28;20845;-79
2022/06/03 10:42:00;;;;;;;1.43;0.80;;;31.30;57.50;;;;;;5009410;28;20459;-80
2022/06/03 10:44:29;;;;;;;1.43;0.80;;;31.30;58.30;;;;;;5012182;28;20464;-80
2022/06/03 10:46:58;;;;;;;1.40;0.80;;;31.30;57.20;;;;;;5010046;28;20484;-81
2022/06/03 10:49:28;;;;;;;1.60;1.10;;;31.30;57.10;;;;;;5006496;28;20245;-81
2022/06/03 11:03:25;;;;;;;1.40;0.80;;;31.30;57.80;;;;;;5007503;28;20211;-82
2022/06/03 11:05:52;;;;;;;1.43;0.80;;;31.30;56.10;;;;;;5008322;28;20204;-81
2022/06/03 11:08:21;;;;;;;1.43;0.80;;;31.30;56.40;;;;;;5009656;28;20638;-83
2022/06/03 11:10:50;;;;;;;1.40;0.80;;;31.20;57.00;;;;;;5009502;28;20416;-85
2022/06/03 11:13:28;;;;;;;1.47;0.80;;;31.30;55.20;;;;;;5004558;28;20282;-83
2022/06/03 11:15:55;;;;;;;1.40;0.80;;;31.00;56.50;;;;;;5009607;28;20204;-82
2022/06/03 11:18:27;;;;;;;1.40;0.80;;;31.00;57.20;;;;;;5010417;28;20296;-81
2022/06/03 11:20:56;;;;;;;1.40;0.80;;;31.10;58.40;;;;;;5009915;28;20320;-83
2022/06/03 11:23:25;;;;;;;1.40;0.80;;;31.00;56.90;;;;;;5013732;28;20672;-82
2022/06/03 11:25:53;;;;;;;1.50;0.90;;;30.80;56.30;;;;;;5009994;28;20208;-82
2022/06/03 11:28:24;;;;;;;1.47;0.80;;;31.00;57.50;;;;;;5010759;28;20668;-81
2022/06/03 11:30:54;;;;;;;1.43;0.80;;;31.40;57.20;;;;;;5010458;28;20209;-83
2022/06/03 11:33:25;;;;;;;1.40;0.80;;;31.60;54.80;;;;;;5010534;28;20208;-82
2022/06/03 11:35:57;;;;;;;1.40;0.80;;;31.50;56.40;;;;;;5009105;28;20319;-81
2022/06/03 11:38:30;;;;;;;1.40;0.80;;;31.40;56.50;;;;;;5008690;28;20339;-80
2022/06/03 11:41:02;;;;;;;1.47;0.90;;;31.30;55.30;;;;;;5003351;28;20537;-82
2022/06/03 11:43:35;;;;;;;1.40;0.80;;;31.10;56.10;;;;;;5012146;28;20209;-83
2022/06/03 11:46:05;;;;;;;1.40;0.80;;;31.00;55.80;;;;;;5012298;28;20240;-82
2022/06/03 11:48:35;;;;;;;1.43;0.80;;;30.90;55.90;;;;;;5006433;28;20197;-82
2022/06/03 11:51:03;;;;;;;1.40;0.80;;;30.90;55.50;;;;;;5011107;28;20292;-82
2022/06/03 11:53:34;;;;;;;1.43;0.80;;;31.00;56.70;;;;;;5016724;28;20467;-81
2022/06/03 11:56:04;;;;;;;1.40;0.80;;;31.00;56.70;;;;;;5012644;28;20209;-82
2022/06/03 11:58:49;;;;;;;1.47;0.80;;;30.90;56.90;;;;;;5010590;28;20755;-81
2022/06/03 12:01:25;;;;;;;1.40;0.80;;;30.90;56.80;;;;;;5008879;28;20467;-82
2022/06/03 12:03:59;;;;;;;1.47;0.80;;;30.80;56.40;;;;;;5003428;28;20860;-81
2022/06/03 12:06:34;;;;;;;1.43;0.90;;;30.70;58.70;;;;;;5009134;28;20225;-81
2022/06/03 12:09:08;;;;;;;1.40;0.80;;;30.50;59.60;;;;;;5012065;28;20484;-81
2022/06/03 12:14:34;;;;;;;2.13;1.00;;;30.10;61.40;;;;;;5004751;28;20447;-82
2022/06/03 12:17:22;;;;;;;1.40;0.80;;;29.80;61.10;;;;;;5012352;28;21202;-84
2022/06/03 12:19:51;;;;;;;1.43;0.80;;;29.40;61.40;;;;;;5008320;28;20510;-81
2022/06/03 12:22:35;;;;;;;1.43;0.80;;;29.20;61.70;;;;;;5011543;28;20467;-81
2022/06/03 12:25:05;;;;;;;1.40;0.80;;;29.00;62.60;;;;;;5011409;28;20470;-81
2022/06/03 12:27:35;;;;;;;1.43;0.80;;;29.10;62.10;;;;;;5013774;28;20491;-81
2022/06/03 12:30:26;;;;;;;1.43;0.80;;;29.00;62.40;;;;;;5010310;28;20470;-81
2022/06/03 12:32:57;;;;;;;1.47;0.80;;;29.00;62.60;;;;;;5007317;28;20968;-81
2022/06/03 12:35:58;;;;;;;1.47;0.80;;;29.20;63.40;;;;;;5008941;28;20478;-80
2022/06/03 12:38:57;;;;;;;1.43;0.80;;;29.20;62.30;;;;;;5007382;28;20491;-80
2022/06/03 12:41:56;;;;;;;1.43;0.80;;;29.10;62.50;;;;;;5012499;28;21251;-81
2022/06/03 12:44:47;;;;;;;1.50;0.90;;;28.90;61.80;;;;;;4987106;28;20463;-78
2022/06/03 12:47:27;;;;;;;1.43;0.80;;;28.60;63.20;;;;;;5004993;28;20537;-80
2022/06/03 12:49:56;;;;;;;1.47;0.80;;;28.80;63.30;;;;;;5006429;28;20846;-79
2022/06/03 12:52:38;;;;;;;1.40;0.80;;;29.10;63.70;;;;;;5002721;28;20468;-80
2022/06/03 12:55:09;;;;;;;1.40;0.80;;;29.20;62.50;;;;;;5003994;28;20523;-79
2022/06/03 12:57:43;;;;;;;1.40;0.80;;;29.30;62.00;;;;;;5005773;28;20554;-79
2022/06/03 13:00:16;;;;;;;1.40;0.80;;;29.30;61.90;;;;;;5003266;28;20471;-79
2022/06/03 13:02:50;;;;;;;1.50;0.90;;;29.20;62.10;;;;;;5004735;28;20559;-79
2022/06/03 13:05:40;;;;;;;1.40;0.80;;;29.00;62.50;;;;;;4999792;28;20469;-80
2022/06/03 13:08:10;;;;;;;1.50;0.80;;;29.00;63.60;;;;;;5001628;28;20558;-79
2022/06/03 13:10:57;;;;;;;1.43;0.80;;;29.10;64.00;;;;;;5000867;28;20976;-79
2022/06/03 13:13:41;;;;;;;1.40;0.80;;;29.00;62.10;;;;;;5002207;28;20483;-79
2022/06/03 13:16:44;;;;;;;1.40;0.80;;;29.30;63.30;;;;;;4999385;28;20477;-79
2022/06/03 13:19:45;;;;;;;1.47;0.83;;;29.70;62.10;;;;;;5002083;28;20818;-78
2022/06/03 13:22:28;;;;;;;1.47;0.90;;;29.80;62.10;;;;;;4998196;28;20471;-78
2022/06/03 13:25:31;;;;;;;1.43;0.80;;;29.90;61.90;;;;;;4996713;28;20479;-79
2022/06/03 13:28:33;;;;;;;1.60;0.80;;;29.90;61.50;;;;;;4917467;28;20498;-80
2022/06/03 13:31:10;;;;;;;1.40;0.80;;;29.70;61.00;;;;;;4916967;29;21148;-78
2022/06/03 13:34:22;;;;;;;1.40;0.90;;;29.70;61.30;;;;;;4978945;28;20870;-78
2022/06/03 13:37:17;;;;;;;1.43;0.80;;;29.70;61.50;;;;;;5001121;28;20485;-77
2022/06/03 13:40:08;;;;;;;1.50;0.93;;;29.80;62.00;;;;;;5002067;28;20498;-78
2022/06/03 13:42:59;;;;;;;1.40;0.80;;;29.90;61.60;;;;;;5004892;28;20463;-79
2022/06/03 13:45:44;;;;;;;1.43;0.80;;;29.90;61.40;;;;;;5008640;28;20517;-78
2022/06/03 13:48:15;;;;;;;1.60;1.20;;;29.90;61.10;;;;;;5007066;28;20479;-77
2022/06/03 13:50:43;;;;;;;1.40;0.80;;;29.80;60.80;;;;;;5007302;28;20463;-76
2022/06/03 13:53:14;;;;;;;1.43;0.80;;;29.90;61.60;;;;;;4971584;28;20495;-79
2022/06/03 13:55:53;;;;;;;1.40;0.80;;;30.00;61.10;;;;;;5004245;28;20492;-76
2022/06/03 13:58:26;;;;;;;1.40;0.80;;;30.00;60.60;;;;;;4981344;28;20486;-77
2022/06/03 14:01:00;;;;;;;1.40;0.80;;;30.20;62.60;;;;;;5005954;28;20538;-77
2022/06/03 14:03:31;;;;;;;1.60;1.10;;;30.10;60.90;;;;;;5007581;28;20463;-78
2022/06/03 14:06:03;;;;;;;1.43;0.80;;;30.00;61.20;;;;;;5006842;28;20570;-78
2022/06/03 14:08:38;;;;;;;1.47;0.90;;;29.90;60.90;;;;;;5005854;28;20470;-78
2022/06/03 14:11:12;;;;;;;1.47;0.80;;;30.00;61.10;;;;;;5000945;28;20473;-79
2022/06/03 14:13:53;;;;;;;1.43;0.80;;;30.20;60.90;;;;;;5007429;28;20638;-79
2022/06/03 14:16:26;;;;;;;1.47;0.80;;;30.20;60.60;;;;;;5006911;28;20970;-78
2022/06/03 14:19:03;;;;;;;5.23;3.23;;;30.10;61.80;;;;;;5009189;28;20519;-79
2022/06/03 14:21:38;;;;;;;1.40;0.80;;;30.00;61.50;;;;;;4992845;28;20561;-79
2022/06/03 14:24:11;;;;;;;1.43;0.80;;;30.00;61.50;;;;;;5003014;28;20473;-80
2022/06/03 14:26:44;;;;;;;1.40;0.80;;;29.90;61.20;;;;;;5012313;28;20499;-79
2022/06/03 14:29:15;;;;;;;1.47;0.80;;;29.70;61.50;;;;;;5014290;28;20577;-79
2022/06/03 14:31:47;;;;;;;1.40;0.80;;;29.60;61.20;;;;;;5009888;28;20459;-79
2022/06/03 14:34:19;;;;;;;1.40;0.80;;;29.50;61.20;;;;;;5010572;28;20505;-79
2022/06/03 14:36:48;;;;;;;1.43;0.80;;;29.40;62.80;;;;;;5010228;28;20491;-79
2022/06/03 14:39:22;;;;;;;1.43;0.80;;;29.20;62.60;;;;;;5007644;28;20598;-79
2022/06/03 14:41:53;;;;;;;1.50;0.90;;;29.10;62.70;;;;;;5008901;28;20499;-80